Pure Air, Missouri
Current Conditions -  °F | °C
As of 8:16 PM on Sunday 25 Jan 2015 (Local Time) from KIRK Reporting Station
Overcast Overcast  
Wind Chill: -6°   Ceiling: 1400
Heat Index: -1°   Visibility: 10mi
Dew Point: -3°   Wind: 9mph
Humidity: 88%   Direction: 350°N
Pressure: 30.06"   Gusts: NA
Location:  40.2969°N, 92.7524°W
Report Text: KIRK 260216Z AUTO 35008KT 10SM BKN014 OVC037 M01/M03 A3006 RMK AO2 T10111028 $
Loading
Personal Weather Stations






























Interactive Weather Map New forecast layout! Learn more

10-Day Weather Forecast

Advertisements
Track Severe Weather on mobile